createdAt,value
2019-04-03T00:01:43.126Z,6.10
2019-04-03T00:03:50.523Z,6.10
2019-04-03T00:05:57.889Z,6.12
2019-04-03T00:08:06.397Z,6.18
2019-04-03T00:10:15.139Z,6.12
2019-04-03T00:12:23.111Z,6.14
2019-04-03T00:14:30.482Z,6.14
2019-04-03T00:16:37.923Z,6.12
2019-04-03T00:18:46.795Z,6.13
2019-04-03T00:20:54.331Z,6.09
2019-04-03T00:23:01.765Z,6.08
2019-04-03T00:25:09.771Z,6.06
2019-04-03T00:27:17.137Z,6.06
2019-04-03T00:29:24.583Z,6.07
2019-04-03T00:31:31.984Z,6.04
2019-04-03T00:33:39.373Z,6.08
2019-04-03T00:35:46.801Z,6.07
2019-04-03T00:37:54.187Z,6.05
2019-04-03T00:40:01.526Z,6.04
2019-04-03T00:42:08.904Z,6.03
2019-04-03T00:44:17.164Z,5.99
2019-04-03T00:46:25.174Z,6.03
2019-04-03T00:48:32.687Z,6.02
2019-04-03T00:50:41.018Z,5.95
2019-04-03T00:52:48.399Z,5.97
2019-04-03T00:54:56.629Z,5.98
2019-04-03T00:57:04.600Z,5.94
2019-04-03T00:59:11.961Z,5.94
2019-04-03T01:01:19.405Z,5.94
2019-04-03T01:03:28.246Z,5.96
2019-04-03T01:05:35.991Z,5.85
2019-04-03T01:07:44.537Z,5.92
2019-04-03T01:09:52.060Z,5.84
2019-04-03T01:12:00.865Z,5.85
2019-04-03T01:14:08.650Z,5.81
2019-04-03T01:16:16.046Z,5.78
2019-04-03T01:18:23.436Z,5.75
2019-04-03T01:20:30.839Z,5.75
2019-04-03T01:22:38.374Z,5.75
2019-04-03T01:24:45.772Z,5.65
2019-04-03T01:26:53.343Z,5.61
2019-04-03T01:29:00.837Z,5.60
2019-04-03T01:31:08.246Z,5.59
2019-04-03T01:33:16.483Z,5.56
2019-04-03T01:35:24.531Z,5.57
2019-04-03T01:37:31.890Z,5.53
2019-04-03T01:39:39.229Z,5.47
2019-04-03T01:41:46.607Z,5.48
2019-04-03T01:43:54.388Z,5.40
2019-04-03T01:46:02.248Z,5.43
2019-04-03T01:48:09.634Z,5.39
2019-04-03T01:50:17.045Z,5.38
2019-04-03T01:52:24.402Z,5.31
2019-04-03T01:54:33.264Z,5.27
2019-04-03T01:56:40.934Z,5.28
2019-04-03T01:58:48.385Z,5.26
2019-04-03T02:00:55.781Z,5.23
2019-04-03T02:03:03.165Z,5.20
2019-04-03T02:05:12.795Z,5.17
2019-04-03T02:07:20.761Z,5.12
2019-04-03T02:09:28.142Z,5.11
2019-04-03T02:11:35.624Z,5.12
2019-04-03T02:13:42.969Z,5.04
2019-04-03T02:15:52.126Z,5.01
2019-04-03T02:17:59.427Z,5.02
2019-04-03T02:20:07.251Z,4.93
2019-04-03T02:22:14.639Z,4.90
2019-04-03T02:24:21.959Z,4.88
2019-04-03T02:26:30.663Z,4.86
2019-04-03T02:28:38.338Z,4.80
2019-04-03T02:30:47.182Z,4.81
2019-04-03T02:32:56.642Z,4.80
2019-04-03T02:35:06.544Z,4.72
2019-04-03T02:37:16.512Z,4.67
2019-04-03T02:39:25.723Z,4.67
2019-04-03T02:41:31.243Z,4.65
2019-04-03T02:43:38.871Z,4.66
2019-04-03T02:45:46.442Z,4.59
2019-04-03T02:47:53.818Z,4.59
2019-04-03T02:50:01.626Z,4.57
2019-04-03T02:52:09.624Z,4.59
2019-04-03T02:54:34.671Z,4.54
2019-04-03T02:56:40.691Z,4.51
2019-04-03T02:58:48.197Z,4.52
2019-04-03T03:00:55.652Z,4.47
2019-04-03T03:03:03.084Z,4.49
2019-04-03T03:05:10.725Z,4.45
2019-04-03T03:07:18.599Z,4.44
2019-04-03T03:09:26.508Z,4.42
2019-04-03T03:11:34.249Z,4.44
2019-04-03T03:13:41.678Z,4.37
2019-04-03T03:15:49.774Z,4.36
2019-04-03T03:17:58.170Z,4.37
2019-04-03T03:20:08.355Z,4.39
2019-04-03T03:22:18.011Z,4.31
2019-04-03T03:24:29.420Z,4.33
2019-04-03T03:26:37.803Z,4.32
2019-04-03T03:28:47.392Z,4.35
2019-04-03T03:31:01.469Z,4.38
2019-04-03T03:33:24.247Z,4.37
2019-04-03T03:35:19.841Z,4.31
2019-04-03T03:37:23.702Z,4.28
2019-04-03T03:39:32.903Z,4.33
2019-04-03T03:41:40.669Z,4.26
2019-04-03T03:43:48.521Z,4.26
2019-04-03T03:45:56.874Z,4.15
2019-04-03T03:48:08.519Z,4.15
2019-04-03T03:50:14.501Z,4.20
2019-04-03T03:52:22.449Z,4.15
2019-04-03T03:54:31.785Z,4.19
2019-04-03T03:56:39.882Z,4.15
2019-04-03T03:58:48.209Z,4.10
2019-04-03T04:00:59.510Z,4.10
2019-04-03T04:03:08.947Z,4.06
2019-04-03T04:05:15.410Z,4.06
2019-04-03T04:07:24.554Z,4.04
2019-04-03T04:09:32.583Z,4.10
2019-04-03T04:11:40.231Z,4.09
2019-04-03T04:13:49.679Z,4.07
2019-04-03T04:15:57.665Z,4.02
2019-04-03T04:18:06.133Z,3.95
2019-04-03T04:20:13.750Z,3.93
2019-04-03T04:22:23.024Z,4.01
2019-04-03T04:24:30.815Z,3.98
2019-04-03T04:26:38.644Z,4.04
2019-04-03T04:28:46.346Z,3.94
2019-04-03T04:30:54.264Z,3.88
2019-04-03T04:33:01.925Z,3.92
2019-04-03T04:35:11.044Z,3.91
2019-04-03T04:37:18.727Z,3.94
2019-04-03T04:39:26.593Z,3.95
2019-04-03T04:41:35.502Z,3.96
2019-04-03T04:43:43.263Z,4.05
2019-04-03T04:45:50.985Z,3.97
2019-04-03T04:48:00.309Z,4.01
2019-04-03T04:50:08.309Z,4.05
2019-04-03T04:52:15.836Z,4.06
2019-04-03T04:54:23.578Z,4.02
2019-04-03T04:56:31.090Z,4.04
2019-04-03T04:58:38.677Z,4.05
2019-04-03T05:00:47.462Z,4.09
2019-04-03T05:02:55.576Z,4.07
2019-04-03T05:05:03.182Z,4.09
2019-04-03T05:07:10.569Z,4.18
2019-04-03T05:09:17.937Z,4.19
2019-04-03T05:11:25.369Z,4.21
2019-04-03T05:13:32.798Z,4.20
2019-04-03T05:15:40.248Z,4.25
2019-04-03T05:17:50.425Z,4.32
2019-04-03T05:19:57.149Z,4.34
2019-04-03T05:22:04.930Z,4.33
2019-04-03T05:24:13.723Z,4.41
2019-04-03T05:26:21.895Z,4.44
2019-04-03T05:28:29.442Z,4.46
2019-04-03T05:30:38.675Z,4.50
2019-04-03T05:32:46.148Z,4.60
2019-04-03T05:34:53.697Z,4.66
2019-04-03T05:37:01.227Z,4.66
2019-04-03T05:39:10.394Z,4.69
2019-04-03T05:41:17.820Z,4.69
2019-04-03T05:43:25.389Z,4.77
2019-04-03T05:45:34.584Z,4.82
2019-04-03T05:47:41.861Z,4.83
2019-04-03T05:49:51.249Z,4.85
2019-04-03T05:51:58.738Z,4.94
2019-04-03T05:54:08.014Z,4.99
2019-04-03T05:56:15.222Z,4.99
2019-04-03T05:58:23.537Z,5.02
2019-04-03T06:00:30.940Z,5.09
2019-04-03T06:02:38.489Z,5.11
2019-04-03T06:04:46.050Z,5.22
2019-04-03T06:06:53.625Z,5.27
2019-04-03T06:09:01.544Z,5.32
2019-04-03T06:11:09.789Z,5.38
2019-04-03T06:13:17.625Z,5.36
2019-04-03T06:15:25.261Z,5.48
2019-04-03T06:17:32.686Z,5.52
2019-04-03T06:19:40.325Z,5.58
2019-04-03T06:21:48.044Z,5.60
2019-04-03T06:23:55.613Z,5.60
2019-04-03T06:26:03.739Z,5.69
2019-04-03T06:28:13.391Z,5.76
2019-04-03T06:30:20.900Z,5.73
2019-04-03T06:32:29.171Z,5.88
2019-04-03T06:34:38.646Z,5.95
2019-04-03T06:36:46.689Z,6.17
2019-04-03T06:38:57.039Z,6.10
2019-04-03T06:41:07.794Z,6.24
2019-04-03T06:43:15.351Z,6.28
2019-04-03T06:45:24.059Z,6.48
2019-04-03T06:47:32.925Z,6.42
2019-04-03T06:49:41.125Z,6.49
2019-04-03T06:51:49.352Z,6.59
2019-04-03T06:53:59.545Z,6.70
2019-04-03T06:56:08.638Z,6.63
2019-04-03T06:58:15.950Z,6.79
2019-04-03T07:00:23.524Z,6.95
2019-04-03T07:02:32.313Z,6.89
2019-04-03T07:04:40.137Z,6.86
2019-04-03T07:06:47.861Z,6.80
2019-04-03T07:08:55.294Z,6.85
2019-04-03T07:11:02.896Z,7.00
2019-04-03T07:13:10.620Z,7.11
2019-04-03T07:15:18.071Z,7.50
2019-04-03T07:17:26.376Z,7.38
2019-04-03T07:19:34.281Z,7.39
2019-04-03T07:21:41.831Z,7.36
2019-04-03T07:23:50.178Z,7.43
2019-04-03T07:25:57.554Z,7.57
2019-04-03T07:28:05.130Z,7.91
2019-04-03T07:30:16.648Z,8.06
2019-04-03T07:32:24.896Z,7.98
2019-04-03T07:34:34.254Z,7.89
2019-04-03T07:36:44.496Z,8.01
2019-04-03T07:38:50.464Z,8.01
2019-04-03T07:40:57.888Z,8.13
2019-04-03T07:43:07.731Z,8.33
2019-04-03T07:45:16.563Z,8.26
2019-04-03T07:47:24.379Z,8.65
2019-04-03T07:49:32.003Z,8.86
2019-04-03T07:51:39.411Z,8.68
2019-04-03T07:53:46.959Z,8.82
2019-04-03T07:55:55.367Z,9.02
2019-04-03T07:58:03.507Z,8.89
2019-04-03T08:00:12.648Z,8.76
2019-04-03T08:02:20.162Z,9.03
2019-04-03T08:04:27.714Z,9.14
2019-04-03T08:06:36.355Z,9.29
2019-04-03T08:08:43.949Z,9.52
2019-04-03T08:10:51.559Z,9.44
2019-04-03T08:12:59.888Z,9.67
2019-04-03T08:15:12.744Z,9.44
2019-04-03T08:17:19.547Z,9.42
2019-04-03T08:19:27.079Z,9.42
2019-04-03T08:21:34.471Z,9.55
2019-04-03T08:23:42.019Z,9.52
2019-04-03T08:25:49.408Z,9.68
2019-04-03T08:27:57.080Z,9.98
2019-04-03T08:30:07.561Z,9.97
2019-04-03T08:32:16.166Z,9.93
2019-04-03T08:34:23.334Z,10.48
2019-04-03T08:36:30.777Z,10.37
2019-04-03T08:38:39.651Z,10.54
2019-04-03T08:40:47.488Z,10.67
2019-04-03T08:42:55.476Z,10.66
2019-04-03T08:45:05.738Z,10.74
2019-04-03T08:47:14.301Z,10.75
2019-04-03T08:49:21.884Z,11.17
2019-04-03T08:51:29.537Z,10.93
2019-04-03T08:53:39.610Z,10.97
2019-04-03T08:55:46.914Z,10.89
2019-04-03T08:57:54.525Z,11.16
2019-04-03T09:00:02.067Z,10.94
2019-04-03T09:02:12.646Z,11.10
2019-04-03T09:04:18.941Z,11.07
2019-04-03T09:06:26.529Z,11.17
2019-04-03T09:08:34.247Z,11.32
2019-04-03T09:10:41.717Z,11.45
2019-04-03T09:12:49.445Z,11.34
2019-04-03T09:14:57.831Z,11.49
2019-04-03T09:17:05.495Z,11.69
2019-04-03T09:19:12.884Z,11.53
2019-04-03T09:21:20.632Z,11.86
2019-04-03T09:23:28.340Z,11.97
2019-04-03T09:25:35.883Z,12.03
2019-04-03T09:27:43.319Z,12.42
2019-04-03T09:29:50.755Z,12.20
2019-04-03T09:31:58.156Z,12.39
2019-04-03T09:34:05.659Z,12.46
2019-04-03T09:36:18.348Z,12.47
2019-04-03T09:38:25.790Z,12.65
2019-04-03T09:40:33.252Z,12.50
2019-04-03T09:42:40.829Z,12.46
2019-04-03T09:44:48.417Z,12.47
2019-04-03T09:46:55.814Z,12.63
2019-04-03T09:49:03.484Z,12.95
2019-04-03T09:51:11.289Z,13.11
2019-04-03T09:53:19.636Z,13.12
2019-04-03T09:55:27.144Z,13.20
2019-04-03T09:57:34.625Z,13.21
2019-04-03T09:59:42.074Z,13.11
2019-04-03T10:01:49.570Z,13.24
2019-04-03T10:03:56.989Z,13.20
2019-04-03T10:06:04.874Z,13.33
2019-04-03T10:08:12.593Z,13.38
2019-04-03T10:10:21.706Z,13.49
2019-04-03T10:12:31.775Z,13.21
2019-04-03T10:14:38.327Z,13.61
2019-04-03T10:16:45.784Z,13.91
2019-04-03T10:18:53.204Z,14.05
2019-04-03T10:21:00.625Z,13.94
2019-04-03T10:23:08.004Z,13.97
2019-04-03T10:25:15.692Z,14.02
2019-04-03T10:27:23.452Z,13.80
2019-04-03T10:29:30.973Z,13.91
2019-04-03T10:31:38.469Z,13.98
2019-04-03T10:33:45.973Z,13.94
2019-04-03T10:35:53.579Z,14.10
2019-04-03T10:38:01.019Z,14.03
2019-04-03T10:40:09.410Z,13.92
2019-04-03T10:42:16.864Z,14.14
2019-04-03T10:44:24.373Z,14.37
2019-04-03T10:46:32.040Z,14.30
2019-04-03T10:48:39.620Z,14.26
2019-04-03T10:50:47.069Z,14.39
2019-04-03T10:52:54.484Z,14.69
2019-04-03T10:55:01.871Z,14.62
2019-04-03T10:57:09.685Z,14.81
2019-04-03T10:59:18.486Z,14.13
2019-04-03T11:01:26.638Z,14.29
2019-04-03T11:03:34.163Z,14.66
2019-04-03T11:05:41.819Z,14.45
2019-04-03T11:07:49.238Z,14.39
2019-04-03T11:09:56.641Z,15.00
2019-04-03T11:12:04.307Z,14.62
2019-04-03T11:14:11.897Z,14.79
2019-04-03T11:16:19.300Z,14.77
2019-04-03T11:18:27.051Z,14.36
2019-04-03T11:20:35.782Z,14.65
2019-04-03T11:22:43.931Z,14.58
2019-04-03T11:24:51.848Z,14.88
2019-04-03T11:26:59.594Z,14.92
2019-04-03T11:29:09.908Z,14.73
2019-04-03T11:31:26.217Z,14.83
2019-04-03T11:33:25.599Z,14.94
2019-04-03T11:35:33.183Z,14.85
2019-04-03T11:37:40.594Z,14.74
2019-04-03T11:39:52.021Z,14.79
2019-04-03T11:41:57.276Z,14.87
2019-04-03T11:44:05.103Z,15.18
2019-04-03T11:46:12.737Z,15.01
2019-04-03T11:48:20.294Z,14.93
2019-04-03T11:50:27.937Z,14.87
2019-04-03T11:52:35.589Z,14.83
2019-04-03T11:54:45.532Z,15.11
2019-04-03T11:56:55.872Z,14.88
2019-04-03T11:59:02.183Z,14.92
2019-04-03T12:01:10.968Z,15.00
2019-04-03T12:03:18.680Z,14.81
2019-04-03T12:05:26.446Z,15.01
2019-04-03T12:07:34.034Z,14.60
2019-04-03T12:09:41.634Z,14.79
2019-04-03T12:11:50.199Z,14.93
2019-04-03T12:13:57.664Z,14.96
2019-04-03T12:16:05.167Z,14.84
2019-04-03T12:18:12.913Z,14.57
2019-04-03T12:20:20.610Z,14.88
2019-04-03T12:22:28.505Z,14.53
2019-04-03T12:24:36.268Z,14.73
2019-04-03T12:26:44.256Z,14.82
2019-04-03T12:28:52.636Z,15.10
2019-04-03T12:31:00.335Z,14.79
2019-04-03T12:33:07.975Z,15.08
2019-04-03T12:35:15.871Z,15.10
2019-04-03T12:37:25.045Z,15.29
2019-04-03T12:39:33.037Z,15.54
2019-04-03T12:41:42.827Z,15.44
2019-04-03T12:43:50.739Z,15.07
2019-04-03T12:46:02.273Z,15.37
2019-04-03T12:48:07.997Z,15.26
2019-04-03T12:50:17.242Z,15.35
2019-04-03T12:52:24.779Z,15.31
2019-04-03T12:54:32.331Z,15.11
2019-04-03T12:56:40.351Z,15.36
2019-04-03T12:58:47.914Z,15.21
2019-04-03T13:00:55.309Z,15.19
2019-04-03T13:03:02.873Z,15.30
2019-04-03T13:05:11.559Z,14.97
2019-04-03T13:07:19.410Z,15.09
2019-04-03T13:09:26.886Z,15.07
2019-04-03T13:11:34.315Z,15.18
2019-04-03T13:13:42.375Z,15.48
2019-04-03T13:15:49.879Z,15.30
2019-04-03T13:17:57.620Z,15.54
2019-04-03T13:20:06.544Z,15.30
2019-04-03T13:22:14.821Z,15.29
2019-04-03T13:24:23.612Z,15.14
2019-04-03T13:26:31.044Z,15.19
2019-04-03T13:28:40.416Z,15.10
2019-04-03T13:30:48.463Z,15.00
2019-04-03T13:32:59.703Z,15.11
2019-04-03T13:35:06.359Z,15.14
2019-04-03T13:37:14.353Z,15.29
2019-04-03T13:39:21.994Z,15.16
2019-04-03T13:41:29.550Z,15.10
2019-04-03T13:43:37.150Z,15.17
2019-04-03T13:45:44.803Z,14.83
2019-04-03T13:47:52.283Z,14.97
2019-04-03T13:50:02.218Z,15.05
2019-04-03T13:52:09.975Z,14.91
2019-04-03T13:54:18.351Z,14.78
2019-04-03T13:56:43.978Z,14.61
2019-04-03T13:58:53.942Z,14.60
2019-04-03T14:01:02.763Z,14.85
2019-04-03T14:03:10.111Z,15.01
2019-04-03T14:05:17.766Z,14.98
2019-04-03T14:07:25.520Z,14.94
2019-04-03T14:09:33.008Z,14.98
2019-04-03T14:11:40.438Z,14.88
2019-04-03T14:13:48.751Z,14.75
2019-04-03T14:15:56.816Z,14.70
2019-04-03T14:18:04.348Z,14.68
2019-04-03T14:20:14.525Z,14.67
2019-04-03T14:22:22.066Z,14.94
2019-04-03T14:24:39.256Z,14.74
2019-04-03T14:26:38.844Z,14.66
2019-04-03T14:28:46.421Z,14.77
2019-04-03T14:30:54.088Z,14.63
2019-04-03T14:33:01.937Z,14.79
2019-04-03T14:35:41.241Z,14.73
2019-04-03T14:37:24.448Z,14.53
2019-04-03T14:39:28.720Z,14.46
2019-04-03T14:41:36.434Z,14.42
2019-04-03T14:43:43.984Z,14.46
2019-04-03T14:45:51.715Z,14.36
2019-04-03T14:47:59.605Z,14.35
2019-04-03T14:50:09.084Z,14.43
2019-04-03T14:52:17.613Z,14.52
2019-04-03T14:54:25.788Z,14.46
2019-04-03T14:56:34.158Z,14.36
2019-04-03T14:58:42.541Z,14.29
2019-04-03T15:00:50.697Z,14.25
2019-04-03T15:02:58.766Z,14.15
2019-04-03T15:05:08.529Z,14.04
2019-04-03T15:07:17.880Z,14.12
2019-04-03T15:09:26.992Z,13.97
2019-04-03T15:11:35.681Z,13.91
2019-04-03T15:13:43.478Z,13.98
2019-04-03T15:15:51.198Z,14.09
2019-04-03T15:17:59.095Z,14.16
2019-04-03T15:20:08.285Z,14.16
2019-04-03T15:22:15.893Z,14.18
2019-04-03T15:24:23.489Z,14.15
2019-04-03T15:26:31.467Z,14.11
2019-04-03T15:28:39.372Z,13.95
2019-04-03T15:30:47.421Z,13.87
2019-04-03T15:32:55.801Z,13.76
2019-04-03T15:35:03.478Z,13.88
2019-04-03T15:37:13.909Z,13.73
2019-04-03T15:39:21.581Z,13.67
2019-04-03T15:41:33.067Z,13.66
2019-04-03T15:43:38.546Z,13.55
2019-04-03T15:45:46.512Z,13.61
2019-04-03T15:47:57.110Z,13.58
2019-04-03T15:50:03.564Z,13.60
2019-04-03T15:52:12.038Z,13.64
2019-04-03T15:54:20.401Z,13.42
2019-04-03T15:56:27.971Z,13.44
2019-04-03T15:58:35.454Z,13.36
2019-04-03T16:00:43.451Z,13.26
2019-04-03T16:02:51.285Z,13.24
2019-04-03T16:04:59.939Z,13.16
2019-04-03T16:07:08.789Z,13.20
2019-04-03T16:09:18.338Z,13.12
2019-04-03T16:11:27.011Z,13.02
2019-04-03T16:13:35.118Z,12.92
2019-04-03T16:15:42.604Z,13.00
2019-04-03T16:17:50.086Z,12.76
2019-04-03T16:19:57.901Z,12.79
2019-04-03T16:22:05.947Z,12.82
2019-04-03T16:24:14.044Z,12.68
2019-04-03T16:26:24.310Z,12.71
2019-04-03T16:28:33.721Z,12.76
2019-04-03T16:30:40.458Z,12.68
2019-04-03T16:32:48.361Z,12.57
2019-04-03T16:34:55.873Z,12.50
2019-04-03T16:37:03.497Z,12.31
2019-04-03T16:39:11.414Z,12.33
2019-04-03T16:41:18.968Z,12.29
2019-04-03T16:43:26.610Z,12.21
2019-04-03T16:45:36.731Z,12.14
2019-04-03T16:47:45.000Z,12.22
2019-04-03T16:49:54.877Z,12.17
2019-04-03T16:52:04.200Z,12.06
2019-04-03T16:54:12.662Z,12.02
2019-04-03T16:56:20.448Z,12.04
2019-04-03T16:58:27.974Z,12.05
2019-04-03T17:00:35.852Z,12.01
2019-04-03T17:02:43.758Z,11.91
2019-04-03T17:04:51.503Z,11.85
2019-04-03T17:06:59.365Z,11.76
2019-04-03T17:09:09.336Z,11.68
2019-04-03T17:11:16.905Z,11.61
2019-04-03T17:13:24.448Z,11.58
2019-04-03T17:15:34.172Z,11.56
2019-04-03T17:17:44.722Z,11.50
2019-04-03T17:19:51.776Z,11.49
2019-04-03T17:21:59.702Z,11.48
2019-04-03T17:24:07.376Z,11.41
2019-04-03T17:26:15.044Z,11.32
2019-04-03T17:28:23.171Z,11.29
2019-04-03T17:30:31.857Z,11.20
2019-04-03T17:32:39.997Z,11.27
2019-04-03T17:34:47.650Z,11.28
2019-04-03T17:36:55.479Z,11.24
2019-04-03T17:39:06.077Z,11.18
2019-04-03T17:41:14.728Z,11.09
2019-04-03T17:43:22.527Z,10.96
2019-04-03T17:45:30.369Z,10.91
2019-04-03T17:47:38.305Z,10.93
2019-04-03T17:49:46.338Z,10.83
2019-04-03T17:51:53.848Z,10.83
2019-04-03T17:54:01.637Z,10.77
2019-04-03T17:56:12.335Z,10.79
2019-04-03T17:58:18.819Z,10.70
2019-04-03T18:00:27.139Z,10.66
2019-04-03T18:02:34.975Z,10.72
2019-04-03T18:04:42.972Z,10.73
2019-04-03T18:06:50.955Z,10.67
2019-04-03T18:08:58.549Z,10.70
2019-04-03T18:11:06.086Z,10.64
2019-04-03T18:13:13.779Z,10.60
2019-04-03T18:15:21.498Z,10.55
2019-04-03T18:17:29.932Z,10.45
2019-04-03T18:19:41.507Z,10.48
2019-04-03T18:21:48.829Z,10.40
2019-04-03T18:23:57.168Z,10.36
2019-04-03T18:26:05.607Z,10.39
2019-04-03T18:28:13.540Z,10.41
2019-04-03T18:30:22.041Z,10.37
2019-04-03T18:32:29.978Z,10.23
2019-04-03T18:34:37.728Z,10.21
2019-04-03T18:36:45.826Z,10.20
2019-04-03T18:38:54.051Z,10.15
2019-04-03T18:41:03.986Z,10.19
2019-04-03T18:43:10.987Z,10.18
2019-04-03T18:45:25.084Z,10.13
2019-04-03T18:47:40.400Z,10.08
2019-04-03T18:49:38.232Z,10.06
2019-04-03T18:51:45.865Z,10.04
2019-04-03T18:53:53.589Z,10.02
2019-04-03T18:56:01.221Z,10.07
2019-04-03T18:58:09.006Z,10.11
2019-04-03T19:00:17.549Z,10.02
2019-04-03T19:02:25.283Z,9.95
2019-04-03T19:04:32.863Z,9.88
2019-04-03T19:06:40.467Z,9.86
2019-04-03T19:08:50.143Z,9.87
2019-04-03T19:11:02.193Z,9.78
2019-04-03T19:13:06.934Z,9.91
2019-04-03T19:15:16.059Z,9.82
2019-04-03T19:17:24.855Z,9.75
2019-04-03T19:19:33.210Z,9.67
2019-04-03T19:21:40.826Z,9.74
2019-04-03T19:23:50.002Z,9.67
2019-04-03T19:25:58.120Z,9.65
2019-04-03T19:28:07.334Z,9.71
2019-04-03T19:30:15.539Z,9.63
2019-04-03T19:32:23.168Z,9.64
2019-04-03T19:34:30.896Z,9.72
2019-04-03T19:36:38.352Z,9.65
2019-04-03T19:38:46.218Z,9.62
2019-04-03T19:40:53.808Z,9.59
2019-04-03T19:43:01.740Z,9.51
2019-04-03T19:45:12.966Z,9.51
2019-04-03T19:47:20.515Z,9.48
2019-04-03T19:49:28.232Z,9.47
2019-04-03T19:51:37.518Z,9.45
2019-04-03T19:53:58.408Z,9.40
2019-04-03T19:55:55.363Z,9.57
2019-04-03T19:58:03.965Z,9.41
2019-04-03T20:00:12.640Z,9.39
2019-04-03T20:02:20.355Z,9.37
2019-04-03T20:04:28.309Z,9.30
2019-04-03T20:06:36.627Z,9.25
2019-04-03T20:08:44.375Z,9.18
2019-04-03T20:10:51.927Z,9.31
2019-04-03T20:12:59.538Z,9.20
2019-04-03T20:15:07.732Z,9.26
2019-04-03T20:17:15.374Z,9.24
2019-04-03T20:19:22.974Z,9.18
2019-04-03T20:21:34.022Z,9.18
2019-04-03T20:23:42.576Z,9.12
2019-04-03T20:25:50.294Z,9.08
2019-04-03T20:27:58.273Z,9.11
2019-04-03T20:30:06.664Z,9.11
2019-04-03T20:32:14.348Z,9.11
2019-04-03T20:34:22.187Z,9.12
2019-04-03T20:36:29.822Z,9.15
2019-04-03T20:38:37.336Z,9.04
2019-04-03T20:40:45.471Z,8.94
2019-04-03T20:42:53.046Z,8.97
2019-04-03T20:45:00.731Z,8.90
2019-04-03T20:47:08.499Z,9.05
2019-04-03T20:49:16.242Z,8.90
2019-04-03T20:51:23.845Z,8.85
2019-04-03T20:53:31.344Z,8.87
2019-04-03T20:55:38.825Z,8.76
2019-04-03T20:57:55.377Z,8.84
2019-04-03T21:00:02.127Z,8.84
2019-04-03T21:02:07.998Z,8.83
2019-04-03T21:04:15.626Z,8.80
2019-04-03T21:06:24.062Z,8.76
2019-04-03T21:08:31.891Z,8.71
2019-04-03T21:10:39.873Z,8.78
2019-04-03T21:12:47.359Z,8.62
2019-04-03T21:15:07.374Z,8.66
2019-04-03T21:17:04.165Z,8.71
2019-04-03T21:19:11.675Z,8.56
2019-04-03T21:21:19.667Z,8.63
2019-04-03T21:23:27.259Z,8.62
2019-04-03T21:25:36.571Z,8.57
2019-04-03T21:27:44.297Z,8.50
2019-04-03T21:29:51.895Z,8.51
2019-04-03T21:31:59.558Z,8.54
2019-04-03T21:34:07.250Z,8.43
2019-04-03T21:36:14.812Z,8.38
2019-04-03T21:38:22.818Z,8.40
2019-04-03T21:40:31.072Z,8.42
2019-04-03T21:42:38.556Z,8.37
2019-04-03T21:44:46.318Z,8.30
2019-04-03T21:46:53.922Z,8.39
2019-04-03T21:49:01.754Z,8.37
2019-04-03T21:51:09.370Z,8.33
2019-04-03T21:53:16.859Z,8.23
2019-04-03T21:55:24.373Z,8.28
2019-04-03T21:57:31.988Z,8.21
2019-04-03T21:59:39.851Z,8.15
2019-04-03T22:01:49.011Z,8.21
2019-04-03T22:03:56.625Z,8.15
2019-04-03T22:06:04.077Z,8.16
2019-04-03T22:08:11.598Z,8.14
2019-04-03T22:10:19.202Z,8.05
2019-04-03T22:12:26.614Z,8.17
2019-04-03T22:14:34.053Z,8.12
2019-04-03T22:16:41.415Z,8.14
2019-04-03T22:18:48.940Z,8.09
2019-04-03T22:20:56.565Z,8.04
2019-04-03T22:23:04.877Z,8.07
2019-04-03T22:25:13.161Z,8.04
2019-04-03T22:27:20.584Z,8.03
2019-04-03T22:29:28.167Z,8.04
2019-04-03T22:31:35.623Z,7.96
2019-04-03T22:33:43.036Z,7.94
2019-04-03T22:35:50.550Z,7.99
2019-04-03T22:37:57.992Z,7.86
2019-04-03T22:40:06.068Z,7.94
2019-04-03T22:42:15.045Z,7.86
2019-04-03T22:44:22.542Z,7.82
2019-04-03T22:46:29.987Z,7.77
2019-04-03T22:48:37.437Z,7.71
2019-04-03T22:50:44.864Z,7.68
2019-04-03T22:52:52.271Z,7.75
2019-04-03T22:54:59.659Z,7.75
2019-04-03T22:57:07.084Z,7.67
2019-04-03T22:59:14.481Z,7.65
2019-04-03T23:01:24.754Z,7.62
2019-04-03T23:03:33.888Z,7.50
2019-04-03T23:05:41.419Z,7.57
2019-04-03T23:07:51.674Z,7.56
2019-04-03T23:09:58.875Z,7.49
2019-04-03T23:12:06.372Z,7.39
2019-04-03T23:14:13.847Z,7.40
2019-04-03T23:16:21.257Z,7.48
2019-04-03T23:18:28.686Z,7.52
2019-04-03T23:20:36.056Z,7.43
2019-04-03T23:22:43.503Z,7.37
2019-04-03T23:24:50.925Z,7.29
2019-04-03T23:26:58.377Z,7.35
2019-04-03T23:29:05.909Z,7.31
2019-04-03T23:31:13.617Z,7.34
2019-04-03T23:33:21.203Z,7.31
2019-04-03T23:35:28.601Z,7.33
2019-04-03T23:37:35.941Z,7.24
2019-04-03T23:39:43.305Z,7.15
2019-04-03T23:41:50.698Z,7.13
2019-04-03T23:43:58.121Z,7.08
2019-04-03T23:46:05.599Z,7.14
2019-04-03T23:48:12.997Z,7.00
2019-04-03T23:50:22.017Z,6.95
2019-04-03T23:52:29.969Z,6.99
2019-04-03T23:54:38.066Z,6.96
2019-04-03T23:56:45.443Z,6.95
2019-04-03T23:58:52.795Z,6.94
